Surface observations / Europe / LIPB

Quebec | Canada | USA | France | UK | Europe | Elsewhere

Display: Info & Location for LIPB | Help decoding METAR

LIPB BOLZANO(CIV/IT-AFB) -- IY
Raw surface observations for station LIPB
LIPB 192050Z VRB02KT 9999 SCT060 SCT110 09/09 Q1008=
LIPB 191950Z VRB03KT 9999 SCT060 SCT110 09/09 Q1008=
LIPB 191850Z 00000KT 9999 BKN060 BKN090 11/10 Q1008=
LIPB 191750Z 00000KT 9999 -RA BKN060 BKN090 12/10 Q1008=
LIPB 191650Z VRB02KT 9999 -RA SCT050 BKN090 12/09 Q1008=
LIPB 191550Z 29003KT 9999 FEW060 BKN090 12/09 Q1009=
LIPB 191450Z 30004KT 270V330 9999 FEW015 SCT060 BKN090 12/09 Q1009=
LIPB 191350Z VRB02KT 9999 FEW015 BKN060 BKN090 13/09 Q1009=
LIPB 191250Z 00000KT 9999 FEW015 SCT040 BKN080 12/09 Q1010=
LIPB 191150Z VRB01KT 9999 -RA FEW010 SCT030 BKN080 11/09 Q1010=
LIPB 191050Z VRB02KT 9999 FEW010 SCT030 BKN080 11/08 Q1010=
LIPB 190950Z VRB02KT 9999 -RA FEW010 SCT030 BKN070 10/08 Q1010=
LIPB 190850Z 00000KT 9999 -RA FEW013 SCT030 BKN040 09/08 Q1010=
LIPB 190750Z VRB02KT 9999 -RA FEW013 SCT030 BKN040 09/07 Q1010=
LIPB 190650Z 01002KT 9999 -RA FEW015 SCT030 BKN040 08/06 Q1010=
LIPB 190550Z VRB02KT 9999 -RA SCT030 BKN040 08/07 Q1009=
LIPB 190450Z VRB02KT 9999 SCT030 BKN040 08/06 Q1008=
LIPB 190350Z 02004KT 280V070 9999 SCT030 BKN046 08/07 Q1007 RMK MON INVIS=